Time;durP1;ratioP1;P1;durP2;ratioP2;P2;SDS_P1;SDS_P2;PMS_P1;PMS_P2;Temp;Humidity;BMP_temperature;BMP_pressure;BME280_temperature;BME280_humidity;BME280_pressure;Samples;Min_cycle;Max_cycle;Signal;HPM_P1;HPM_P2
2021/12/30 00:00:53;;;;;;;11.33;7.20;;;12.40;99.90;;;;;;5073444;28;20216;-64
2021/12/30 00:03:19;;;;;;;7.10;6.17;;;12.30;99.90;;;;;;5077646;28;20199;-67
2021/12/30 00:05:45;;;;;;;9.27;6.57;;;12.40;99.90;;;;;;5073395;28;20208;-65
2021/12/30 00:08:11;;;;;;;7.40;6.60;;;12.30;99.90;;;;;;5091401;28;20173;-66
2021/12/30 00:10:38;;;;;;;8.77;6.67;;;12.30;99.90;;;;;;5090960;28;20196;-64
2021/12/30 00:13:04;;;;;;;9.70;6.40;;;12.30;99.90;;;;;;5092158;28;20205;-65
2021/12/30 00:15:30;;;;;;;11.10;6.77;;;12.30;99.90;;;;;;5091461;28;20193;-66
2021/12/30 00:17:56;;;;;;;6.90;6.30;;;12.30;99.90;;;;;;5072607;28;20260;-64
2021/12/30 00:20:22;;;;;;;8.90;8.00;;;12.20;99.90;;;;;;5071978;28;20228;-65
2021/12/30 00:22:47;;;;;;;12.47;6.90;;;12.30;99.90;;;;;;5088200;28;20748;-65
2021/12/30 00:25:13;;;;;;;11.23;6.73;;;12.20;99.90;;;;;;5079520;28;20178;-65
2021/12/30 00:27:40;;;;;;;8.77;7.10;;;12.30;99.90;;;;;;5071940;28;20170;-66
2021/12/30 00:30:08;;;;;;;10.83;7.00;;;12.30;99.90;;;;;;5082905;28;20219;-65
2021/12/30 00:32:34;;;;;;;7.77;7.03;;;12.30;99.90;;;;;;5091861;28;20195;-66
2021/12/30 00:35:00;;;;;;;9.63;7.30;;;12.30;99.90;;;;;;5082409;28;20189;-64
2021/12/30 00:37:25;;;;;;;11.93;7.27;;;12.40;99.90;;;;;;5071982;28;20286;-64
2021/12/30 00:39:52;;;;;;;8.67;7.03;;;12.40;99.90;;;;;;5078107;28;20175;-66
2021/12/30 00:42:17;;;;;;;7.27;6.67;;;12.40;99.90;;;;;;5091565;28;20197;-65
2021/12/30 00:44:43;;;;;;;10.10;6.80;;;12.50;99.90;;;;;;5084298;28;20185;-64
2021/12/30 00:47:09;;;;;;;10.57;7.40;;;12.50;99.90;;;;;;5071923;28;20666;-65
2021/12/30 00:49:34;;;;;;;10.90;7.03;;;12.50;99.90;;;;;;5074737;28;20185;-65
2021/12/30 00:52:00;;;;;;;10.20;6.87;;;12.50;99.90;;;;;;5073172;22;20223;-65
2021/12/30 00:54:26;;;;;;;10.97;7.10;;;12.50;99.90;;;;;;5030874;28;20255;-66
2021/12/30 00:56:51;;;;;;;7.87;6.87;;;12.50;99.90;;;;;;5030268;28;20210;-67
2021/12/30 00:59:17;;;;;;;10.43;6.50;;;12.60;99.90;;;;;;5031417;28;20617;-64
2021/12/30 01:01:43;;;;;;;11.33;6.90;;;12.60;99.90;;;;;;5031578;28;20206;-66
2021/12/30 01:04:09;;;;;;;15.37;6.97;;;12.60;99.90;;;;;;5031101;28;20687;-67
2021/12/30 01:06:35;;;;;;;8.53;6.97;;;12.60;99.90;;;;;;5031539;28;20175;-65
2021/12/30 01:09:02;;;;;;;7.27;6.57;;;12.60;99.90;;;;;;5031421;28;20175;-66
2021/12/30 01:11:28;;;;;;;9.03;6.80;;;12.50;99.90;;;;;;5031437;28;20191;-65
2021/12/30 01:14:01;;;;;;;8.57;6.93;;;12.50;99.90;;;;;;5031017;28;20245;-65
2021/12/30 01:16:30;;;;;;;13.43;7.07;;;12.50;99.90;;;;;;5031319;28;20206;-65
2021/12/30 01:21:41;;;;;;;12.73;7.77;;;12.50;99.90;;;;;;5031335;28;20238;-67
2021/12/30 01:24:06;;;;;;;10.87;6.73;;;12.60;99.90;;;;;;5030951;28;20183;-66
2021/12/30 01:26:32;;;;;;;13.83;8.87;;;12.60;99.90;;;;;;5030895;28;20225;-65
2021/12/30 01:28:58;;;;;;;12.90;7.00;;;12.60;99.90;;;;;;5031386;28;20176;-65
2021/12/30 01:31:24;;;;;;;11.50;6.77;;;12.60;99.90;;;;;;5031045;28;20594;-65
2021/12/30 01:33:50;;;;;;;10.63;6.40;;;12.70;99.90;;;;;;5030889;28;20176;-66
2021/12/30 01:36:16;;;;;;;11.07;6.50;;;12.70;99.90;;;;;;5030820;28;20207;-65
2021/12/30 01:38:43;;;;;;;9.53;7.73;;;12.70;99.90;;;;;;5031277;28;20698;-65
2021/12/30 01:41:10;;;;;;;9.20;6.57;;;12.70;99.90;;;;;;5030950;28;20198;-65
2021/12/30 01:43:37;;;;;;;11.53;7.40;;;12.70;99.90;;;;;;5012009;28;20198;-64
2021/12/30 01:46:04;;;;;;;13.53;6.90;;;12.70;99.90;;;;;;5011383;28;20164;-64
2021/12/30 01:48:30;;;;;;;9.93;6.70;;;12.70;99.90;;;;;;5011270;28;20247;-65
2021/12/30 01:50:56;;;;;;;9.67;7.37;;;12.70;99.90;;;;;;5023238;28;20214;-64
2021/12/30 01:53:22;;;;;;;6.73;6.10;;;12.70;99.90;;;;;;5030962;28;20163;-65
2021/12/30 01:55:49;;;;;;;9.83;7.10;;;12.70;99.90;;;;;;5030879;28;20237;-65
2021/12/30 01:58:16;;;;;;;9.67;7.63;;;12.80;99.90;;;;;;5031081;28;20204;-64
2021/12/30 02:00:45;;;;;;;11.57;6.97;;;12.80;99.90;;;;;;5030830;28;20203;-65
2021/12/30 02:03:11;;;;;;;8.23;6.50;;;12.70;99.90;;;;;;5030825;28;20176;-65
2021/12/30 02:05:38;;;;;;;12.70;6.73;;;12.70;99.90;;;;;;5033269;28;20652;-65
2021/12/30 02:08:07;;;;;;;8.40;6.33;;;12.70;99.90;;;;;;5034631;28;20246;-66
2021/12/30 02:10:33;;;;;;;7.10;6.20;;;12.70;99.90;;;;;;5034406;28;20640;-64
2021/12/30 02:12:59;;;;;;;11.00;6.63;;;12.70;99.90;;;;;;5034001;28;20636;-65
2021/12/30 02:15:24;;;;;;;11.67;6.50;;;12.70;99.90;;;;;;5034466;28;20188;-65
2021/12/30 02:17:51;;;;;;;7.67;6.50;;;12.70;99.90;;;;;;5034318;28;20211;-65
2021/12/30 02:20:44;;;;;;;11.40;7.20;;;12.80;99.90;;;;;;5034192;28;20179;-65
2021/12/30 02:23:15;;;;;;;8.10;6.67;;;12.90;99.90;;;;;;5033966;28;20180;-66
2021/12/30 02:25:41;;;;;;;11.20;6.97;;;13.00;99.90;;;;;;5034392;28;20183;-65
2021/12/30 02:28:10;;;;;;;8.83;6.33;;;13.10;99.90;;;;;;5034535;28;20179;-66
2021/12/30 02:30:37;;;;;;;12.27;6.73;;;13.10;99.90;;;;;;5033936;28;20229;-65
2021/12/30 02:33:03;;;;;;;8.63;6.60;;;13.10;99.90;;;;;;5034017;28;20676;-66
2021/12/30 02:35:29;;;;;;;7.77;6.40;;;13.20;99.90;;;;;;5034071;28;20176;-66
2021/12/30 02:37:55;;;;;;;7.87;6.33;;;13.20;99.90;;;;;;5034151;28;20264;-66
2021/12/30 02:40:25;;;;;;;7.90;7.20;;;13.30;99.90;;;;;;5033765;28;20175;-64
2021/12/30 02:42:51;;;;;;;7.90;7.20;;;13.30;99.90;;;;;;5032820;28;20587;-66
2021/12/30 02:45:17;;;;;;;9.40;6.13;;;13.30;99.90;;;;;;5033896;28;20293;-66
2021/12/30 02:47:42;;;;;;;11.90;6.53;;;13.20;99.90;;;;;;5034782;28;20180;-64
2021/12/30 02:50:08;;;;;;;11.80;6.97;;;13.20;99.90;;;;;;5034060;28;20180;-64
2021/12/30 02:52:34;;;;;;;7.57;6.73;;;13.30;99.90;;;;;;5033741;28;20223;-64
2021/12/30 02:54:59;;;;;;;7.77;7.10;;;13.20;99.90;;;;;;5033936;28;20179;-65
2021/12/30 02:57:26;;;;;;;10.90;7.63;;;13.20;99.90;;;;;;5033070;28;20245;-65
2021/12/30 02:59:51;;;;;;;8.13;6.90;;;13.20;99.90;;;;;;5033525;28;20214;-65
2021/12/30 03:02:17;;;;;;;10.37;7.63;;;13.30;99.90;;;;;;5031901;28;20703;-65
2021/12/30 03:04:42;;;;;;;8.53;7.80;;;13.30;99.90;;;;;;5033411;28;20418;-65
2021/12/30 03:07:08;;;;;;;10.70;7.90;;;13.30;99.90;;;;;;5033784;28;20636;-66
2021/12/30 03:09:34;;;;;;;9.07;8.10;;;13.30;99.90;;;;;;5033309;28;20179;-65
2021/12/30 03:12:00;;;;;;;10.17;9.13;;;13.40;99.90;;;;;;5033367;28;20201;-65
2021/12/30 03:14:26;;;;;;;9.67;8.87;;;13.40;99.90;;;;;;5033332;28;20580;-66
2021/12/30 03:16:52;;;;;;;11.30;8.67;;;13.40;99.90;;;;;;5032378;28;20207;-66
2021/12/30 03:19:18;;;;;;;8.63;7.93;;;13.30;99.90;;;;;;5033082;28;20187;-66
2021/12/30 03:21:44;;;;;;;8.00;7.30;;;13.30;99.90;;;;;;5033258;28;20723;-65
2021/12/30 03:24:10;;;;;;;9.20;7.40;;;13.20;99.90;;;;;;5032610;28;20171;-65
2021/12/30 03:26:35;;;;;;;7.50;7.00;;;13.20;99.90;;;;;;5033159;28;20186;-65
2021/12/30 03:29:02;;;;;;;9.73;7.53;;;13.20;99.90;;;;;;5033042;28;20707;-65
2021/12/30 03:31:28;;;;;;;8.43;7.63;;;13.10;99.90;;;;;;5033032;28;20198;-64
2021/12/30 03:33:54;;;;;;;11.20;8.50;;;13.10;99.90;;;;;;5032674;28;20451;-66
2021/12/30 03:36:20;;;;;;;9.63;8.73;;;13.10;99.90;;;;;;5032952;28;20272;-65
2021/12/30 03:38:49;;;;;;;8.27;7.53;;;13.00;99.90;;;;;;5032808;28;20641;-65
2021/12/30 03:41:17;;;;;;;8.80;7.83;;;13.10;99.90;;;;;;5033358;28;20203;-65
2021/12/30 03:43:43;;;;;;;7.93;7.23;;;13.10;99.90;;;;;;5032447;28;20187;-65
2021/12/30 03:46:09;;;;;;;11.33;8.10;;;13.10;99.90;;;;;;5032926;28;20187;-65
2021/12/30 03:48:41;;;;;;;12.20;9.33;;;13.10;99.90;;;;;;5032283;28;20175;-65
2021/12/30 03:51:09;;;;;;;9.97;7.70;;;13.10;99.90;;;;;;5032875;28;20210;-65
2021/12/30 03:53:39;;;;;;;9.33;8.53;;;13.10;99.90;;;;;;5032072;28;20229;-66
2021/12/30 03:56:06;;;;;;;9.07;8.20;;;13.10;99.90;;;;;;5032729;28;20178;-65
2021/12/30 03:58:31;;;;;;;8.00;7.23;;;13.10;99.90;;;;;;5030970;28;20182;-66
2021/12/30 04:00:57;;;;;;;8.23;7.50;;;13.10;99.90;;;;;;5032228;28;20188;-66
2021/12/30 04:03:22;;;;;;;7.80;7.20;;;13.10;99.90;;;;;;5032172;28;20260;-65
2021/12/30 04:05:48;;;;;;;8.73;7.93;;;13.10;99.90;;;;;;5032422;28;20258;-64
2021/12/30 04:08:14;;;;;;;9.23;8.33;;;13.10;99.90;;;;;;5032451;28;20652;-65
2021/12/30 04:10:39;;;;;;;11.63;10.90;;;13.10;99.90;;;;;;5032029;28;20179;-66
2021/12/30 04:13:05;;;;;;;9.13;8.57;;;13.10;99.90;;;;;;5031904;28;20214;-66
2021/12/30 04:15:31;;;;;;;9.37;8.67;;;13.10;99.90;;;;;;5032368;28;20206;-66
2021/12/30 04:17:56;;;;;;;7.87;7.27;;;13.10;99.90;;;;;;5032232;28;20281;-66
2021/12/30 04:20:22;;;;;;;9.10;8.33;;;13.10;99.90;;;;;;5032075;28;20175;-67
2021/12/30 04:22:48;;;;;;;7.70;7.10;;;13.10;99.90;;;;;;5031546;28;20254;-66
2021/12/30 04:25:14;;;;;;;9.47;8.90;;;13.10;99.90;;;;;;5032197;28;20641;-66
2021/12/30 04:27:42;;;;;;;8.03;7.53;;;13.10;99.90;;;;;;5031843;28;20587;-66
2021/12/30 04:30:08;;;;;;;11.47;10.60;;;13.10;99.90;;;;;;5031256;28;20237;-65
2021/12/30 04:32:34;;;;;;;7.07;6.57;;;13.00;99.90;;;;;;5031475;28;20195;-66
2021/12/30 04:34:59;;;;;;;6.73;6.23;;;13.10;99.90;;;;;;5031839;28;20522;-66
2021/12/30 04:37:26;;;;;;;9.87;9.07;;;13.10;99.90;;;;;;5031995;28;20242;-66
2021/12/30 04:39:52;;;;;;;10.23;9.67;;;13.10;99.90;;;;;;5031899;28;20179;-65
2021/12/30 04:42:18;;;;;;;9.10;8.50;;;13.10;99.90;;;;;;5031964;28;20462;-65
2021/12/30 04:44:44;;;;;;;11.40;10.60;;;13.10;99.90;;;;;;5031450;28;20199;-66
2021/12/30 04:47:10;;;;;;;7.50;7.10;;;13.10;99.90;;;;;;5032216;28;20180;-64
2021/12/30 04:49:36;;;;;;;10.73;10.13;;;13.20;99.90;;;;;;5031366;28;20206;-65
2021/12/30 04:52:03;;;;;;;8.93;8.33;;;13.20;99.90;;;;;;5031373;28;20239;-65
2021/12/30 04:54:29;;;;;;;7.63;7.00;;;13.20;99.90;;;;;;5031578;28;20179;-66
2021/12/30 04:56:55;;;;;;;7.50;6.90;;;13.20;99.90;;;;;;5031293;28;20743;-65
2021/12/30 04:59:21;;;;;;;7.37;6.70;;;13.30;99.90;;;;;;5031534;28;20187;-66
2021/12/30 05:01:46;;;;;;;13.20;12.43;;;13.30;99.90;;;;;;5031531;28;20195;-65
2021/12/30 05:04:12;;;;;;;16.17;15.33;;;13.30;99.90;;;;;;5031247;28;20585;-65
2021/12/30 05:06:38;;;;;;;26.47;25.07;;;13.30;99.90;;;;;;5031284;28;20214;-66
2021/12/30 05:09:08;;;;;;;8.50;7.70;;;13.30;99.90;;;;;;5031642;28;20219;-66
2021/12/30 05:11:35;;;;;;;8.20;7.50;;;13.40;99.90;;;;;;5031626;28;20290;-65
2021/12/30 05:14:01;;;;;;;9.90;8.97;;;13.40;99.90;;;;;;5031331;28;20194;-65
2021/12/30 05:16:27;;;;;;;9.53;8.77;;;13.40;99.90;;;;;;5031272;28;20196;-65
2021/12/30 05:18:57;;;;;;;8.90;8.20;;;13.50;99.90;;;;;;5031163;28;20210;-65
2021/12/30 05:21:24;;;;;;;24.00;22.73;;;13.50;99.90;;;;;;5031400;28;20191;-65
2021/12/30 05:23:49;;;;;;;20.13;18.83;;;13.60;99.90;;;;;;5030885;28;20618;-66
2021/12/30 05:26:16;;;;;;;11.97;11.07;;;13.70;99.90;;;;;;5031219;28;20431;-64
2021/12/30 05:28:45;;;;;;;8.43;7.80;;;13.70;99.90;;;;;;5031140;28;20172;-66
2021/12/30 05:31:11;;;;;;;9.40;8.60;;;13.80;99.90;;;;;;5031149;28;20597;-65
2021/12/30 05:33:36;;;;;;;29.47;27.33;;;13.90;99.90;;;;;;5031016;28;20171;-65
2021/12/30 05:36:02;;;;;;;52.77;50.30;;;13.90;99.90;;;;;;5031084;28;20180;-65
2021/12/30 05:38:28;;;;;;;37.03;35.20;;;14.00;99.90;;;;;;5031048;28;20171;-66
2021/12/30 05:40:54;;;;;;;14.53;13.67;;;14.00;99.90;;;;;;5033781;28;20803;-66
2021/12/30 05:43:19;;;;;;;8.27;7.67;;;14.00;99.90;;;;;;5030609;28;20657;-65
2021/12/30 05:45:45;;;;;;;25.10;23.70;;;14.10;99.90;;;;;;5015375;28;20199;-65
2021/12/30 05:48:11;;;;;;;15.20;14.47;;;14.10;99.90;;;;;;5015330;28;20184;-64
2021/12/30 05:50:37;;;;;;;16.80;16.00;;;14.10;99.90;;;;;;5032321;28;20233;-65
2021/12/30 05:53:03;;;;;;;20.57;19.57;;;14.10;99.90;;;;;;5034785;28;20592;-66
2021/12/30 05:55:29;;;;;;;25.63;24.10;;;14.10;99.90;;;;;;5034838;28;20562;-66
2021/12/30 05:57:56;;;;;;;10.20;9.40;;;14.20;99.90;;;;;;5034815;28;20211;-64
2021/12/30 06:00:24;;;;;;;13.17;12.37;;;14.20;99.90;;;;;;5034605;28;20271;-65
2021/12/30 06:02:50;;;;;;;10.50;9.80;;;14.30;99.90;;;;;;5034431;28;20175;-65
2021/12/30 06:05:16;;;;;;;39.60;37.67;;;14.30;99.90;;;;;;5034609;28;20626;-65
2021/12/30 06:07:41;;;;;;;19.23;18.33;;;14.30;99.90;;;;;;5034057;28;20262;-64
2021/12/30 06:10:08;;;;;;;15.20;14.50;;;14.30;99.90;;;;;;5033461;28;20657;-66
2021/12/30 06:12:34;;;;;;;9.67;9.07;;;14.40;99.90;;;;;;5034038;28;20199;-65
2021/12/30 06:15:00;;;;;;;7.57;7.07;;;14.40;99.90;;;;;;5034281;28;20543;-65
2021/12/30 06:17:26;;;;;;;10.10;9.60;;;14.40;99.90;;;;;;5034385;28;20289;-65
2021/12/30 06:19:52;;;;;;;35.90;34.27;;;14.40;99.90;;;;;;5033983;28;20271;-65
2021/12/30 06:22:17;;;;;;;8.30;7.90;;;14.50;99.90;;;;;;5033993;28;20195;-66
2021/12/30 06:24:43;;;;;;;9.97;9.47;;;14.50;99.90;;;;;;5033949;28;20182;-67
2021/12/30 06:27:10;;;;;;;6.90;6.50;;;14.50;99.90;;;;;;5034211;28;20194;-65
2021/12/30 06:29:36;;;;;;;12.57;11.90;;;14.50;99.90;;;;;;5034104;28;20171;-66
2021/12/30 06:32:04;;;;;;;11.40;10.80;;;14.50;99.90;;;;;;5033780;28;20223;-65
2021/12/30 06:34:30;;;;;;;7.60;7.20;;;14.50;99.90;;;;;;5033972;28;20256;-66
2021/12/30 06:36:56;;;;;;;8.20;7.80;;;14.50;99.90;;;;;;5034071;28;20302;-66
2021/12/30 06:39:21;;;;;;;7.20;6.70;;;14.50;99.90;;;;;;5032727;28;20270;-65
2021/12/30 06:41:47;;;;;;;8.97;8.57;;;14.50;99.90;;;;;;5033967;28;20508;-65
2021/12/30 06:44:12;;;;;;;17.97;17.17;;;14.50;99.90;;;;;;5033519;28;20184;-65
2021/12/30 06:46:39;;;;;;;7.03;6.73;;;14.40;99.90;;;;;;5033636;28;20176;-65
2021/12/30 06:49:08;;;;;;;5.53;5.23;;;14.50;99.90;;;;;;5033783;28;20649;-64
2021/12/30 06:51:35;;;;;;;12.90;12.30;;;14.50;99.90;;;;;;5032832;28;20219;-65
2021/12/30 06:54:04;;;;;;;12.63;12.03;;;14.50;99.90;;;;;;5033610;28;20201;-67
2021/12/30 06:56:30;;;;;;;8.17;7.77;;;14.50;99.90;;;;;;5033379;28;20258;-66
2021/12/30 06:58:56;;;;;;;6.60;6.20;;;14.50;99.90;;;;;;5033791;28;20175;-67
2021/12/30 07:01:21;;;;;;;8.27;7.87;;;14.50;99.90;;;;;;5033815;28;20204;-67
2021/12/30 07:03:47;;;;;;;7.00;6.67;;;14.50;99.90;;;;;;5032051;28;20274;-68
2021/12/30 07:06:13;;;;;;;8.77;8.27;;;14.50;99.90;;;;;;5033447;28;20184;-66
2021/12/30 07:08:38;;;;;;;9.23;8.80;;;14.60;99.90;;;;;;5033371;28;20201;-67
2021/12/30 07:11:04;;;;;;;6.40;6.10;;;14.50;99.90;;;;;;5031885;28;20243;-67
2021/12/30 07:13:30;;;;;;;5.57;5.27;;;14.60;99.90;;;;;;5033220;28;20206;-67
2021/12/30 07:15:56;;;;;;;8.63;8.13;;;14.50;99.90;;;;;;5033021;28;20210;-67
2021/12/30 07:18:21;;;;;;;7.33;7.00;;;14.50;99.90;;;;;;5033080;28;20199;-67
2021/12/30 07:20:47;;;;;;;15.77;14.80;;;14.50;99.90;;;;;;5033013;28;20270;-67
2021/12/30 07:23:13;;;;;;;8.17;7.57;;;14.50;99.90;;;;;;5032413;28;20566;-66
2021/12/30 07:25:38;;;;;;;7.50;7.20;;;14.60;99.90;;;;;;5033198;28;20171;-67
2021/12/30 07:28:05;;;;;;;6.30;6.00;;;14.60;99.90;;;;;;5032934;28;20194;-67
2021/12/30 07:30:31;;;;;;;8.00;7.60;;;14.60;99.90;;;;;;5033059;28;20541;-65
2021/12/30 07:32:57;;;;;;;6.10;5.83;;;14.50;99.90;;;;;;5032454;28;20191;-67
2021/12/30 07:35:23;;;;;;;6.57;6.27;;;14.60;99.90;;;;;;5033335;28;20217;-66
2021/12/30 07:37:49;;;;;;;5.60;5.30;;;14.60;99.90;;;;;;5032593;28;20301;-66
2021/12/30 07:40:16;;;;;;;5.80;5.27;;;14.60;99.90;;;;;;5033049;28;20191;-66
2021/12/30 07:42:43;;;;;;;6.43;5.93;;;14.60;99.90;;;;;;5032065;28;20575;-67
2021/12/30 07:45:10;;;;;;;6.47;6.10;;;14.60;99.90;;;;;;5032932;28;20179;-66
2021/12/30 07:47:37;;;;;;;6.90;6.50;;;14.70;99.90;;;;;;5032468;28;20188;-67
2021/12/30 07:50:04;;;;;;;5.80;5.50;;;14.70;99.90;;;;;;5032654;28;20175;-67
2021/12/30 07:52:30;;;;;;;6.73;6.23;;;14.70;99.90;;;;;;5032480;28;20215;-66
2021/12/30 07:54:56;;;;;;;6.30;6.00;;;14.70;99.90;;;;;;5032725;28;20229;-66
2021/12/30 07:57:22;;;;;;;6.47;6.17;;;14.70;99.90;;;;;;5032821;28;20218;-68
2021/12/30 07:59:52;;;;;;;6.50;6.20;;;14.70;99.90;;;;;;5032732;28;20625;-68
2021/12/30 08:02:19;;;;;;;6.00;5.70;;;14.70;99.90;;;;;;5031954;28;20329;-67
2021/12/30 08:04:45;;;;;;;6.30;6.00;;;14.60;99.90;;;;;;5032426;28;20172;-68
2021/12/30 08:07:11;;;;;;;6.13;5.83;;;14.60;99.90;;;;;;5031112;28;20236;-67
2021/12/30 08:09:37;;;;;;;5.73;5.47;;;14.60;99.90;;;;;;5033046;28;20250;-67
2021/12/30 08:12:03;;;;;;;5.40;5.20;;;14.60;99.90;;;;;;5031903;28;20207;-68
2021/12/30 08:14:29;;;;;;;5.77;5.57;;;14.60;99.90;;;;;;5032189;28;20690;-66
2021/12/30 08:16:54;;;;;;;6.87;6.27;;;14.60;99.90;;;;;;5031844;28;20265;-66
2021/12/30 08:19:20;;;;;;;6.07;5.83;;;14.70;99.90;;;;;;5032137;28;20549;-66
2021/12/30 08:21:46;;;;;;;7.30;7.00;;;14.70;99.90;;;;;;5032048;28;20206;-66
2021/12/30 08:24:12;;;;;;;7.27;6.90;;;14.70;99.90;;;;;;5031802;28;20722;-66
2021/12/30 08:26:39;;;;;;;6.93;6.63;;;14.70;99.90;;;;;;5030770;28;20274;-66
2021/12/30 08:29:06;;;;;;;6.30;6.00;;;14.70;99.90;;;;;;5031684;28;20183;-65
2021/12/30 08:31:35;;;;;;;6.80;6.50;;;14.70;99.90;;;;;;5032021;28;20226;-66
2021/12/30 08:34:01;;;;;;;6.97;6.67;;;14.70;99.90;;;;;;5031737;28;20179;-66
2021/12/30 08:36:27;;;;;;;7.00;6.70;;;14.60;99.90;;;;;;5032266;28;20206;-67
2021/12/30 08:38:52;;;;;;;6.90;6.60;;;14.60;99.90;;;;;;5031414;28;20191;-67
2021/12/30 08:41:18;;;;;;;6.20;5.73;;;14.60;99.90;;;;;;5032054;28;20198;-67
2021/12/30 08:43:44;;;;;;;5.37;5.17;;;14.60;99.90;;;;;;5031696;28;20179;-66
2021/12/30 08:46:09;;;;;;;5.33;5.13;;;14.60;99.90;;;;;;5032098;28;20167;-67
2021/12/30 08:48:37;;;;;;;5.53;5.33;;;14.70;99.90;;;;;;5031524;28;20186;-65
2021/12/30 08:51:03;;;;;;;5.43;5.23;;;14.70;99.90;;;;;;5031506;28;20211;-67
2021/12/30 08:53:29;;;;;;;6.13;5.90;;;14.70;99.90;;;;;;5031035;28;20214;-67
2021/12/30 08:55:55;;;;;;;6.60;6.30;;;14.60;99.90;;;;;;5030838;28;20184;-67
2021/12/30 08:58:21;;;;;;;6.20;5.90;;;14.50;99.90;;;;;;5030732;28;20216;-67
2021/12/30 09:00:47;;;;;;;5.90;5.60;;;14.60;99.90;;;;;;5030439;28;20195;-67
2021/12/30 09:03:16;;;;;;;6.50;6.10;;;14.60;99.90;;;;;;5030551;28;20661;-67
2021/12/30 09:05:42;;;;;;;5.50;5.20;;;14.60;99.90;;;;;;5030689;28;20179;-67
2021/12/30 09:08:08;;;;;;;6.00;5.70;;;14.70;99.90;;;;;;5030552;28;20188;-67
2021/12/30 09:10:40;;;;;;;5.97;5.57;;;14.70;99.90;;;;;;5030318;28;20289;-67
2021/12/30 09:13:06;;;;;;;5.30;5.10;;;14.80;99.90;;;;;;5029825;28;20190;-67
2021/12/30 09:15:32;;;;;;;5.40;5.20;;;14.80;99.90;;;;;;5029335;28;20194;-66
2021/12/30 09:17:57;;;;;;;6.73;6.43;;;14.90;99.90;;;;;;5030603;28;20207;-67
2021/12/30 09:20:24;;;;;;;6.43;6.13;;;14.90;99.90;;;;;;5030396;28;20911;-66
2021/12/30 09:22:52;;;;;;;6.47;6.17;;;15.00;99.90;;;;;;5030194;28;20179;-67
2021/12/30 09:25:22;;;;;;;6.40;6.10;;;15.00;99.90;;;;;;5030446;28;20171;-67
2021/12/30 09:27:47;;;;;;;6.40;6.00;;;15.00;99.90;;;;;;5030489;28;20175;-67
2021/12/30 09:30:15;;;;;;;7.47;7.07;;;15.00;99.90;;;;;;5030472;28;20184;-68
2021/12/30 09:32:42;;;;;;;6.37;6.07;;;15.00;99.90;;;;;;5029793;28;20202;-66
2021/12/30 09:35:10;;;;;;;6.23;5.93;;;15.00;99.90;;;;;;5030456;28;20237;-67
2021/12/30 09:37:36;;;;;;;6.30;5.80;;;15.10;99.90;;;;;;5030089;28;20548;-66
2021/12/30 09:40:04;;;;;;;5.80;5.40;;;15.20;99.90;;;;;;5030119;28;20241;-66
2021/12/30 09:42:31;;;;;;;6.40;5.90;;;15.20;99.90;;;;;;5029822;28;20202;-66
2021/12/30 09:44:56;;;;;;;6.13;5.73;;;15.30;99.90;;;;;;5029854;28;20180;-67
2021/12/30 09:47:22;;;;;;;6.20;5.90;;;15.40;99.90;;;;;;5030265;28;20625;-66
2021/12/30 09:49:50;;;;;;;6.40;6.00;;;15.40;99.90;;;;;;5030062;28;20234;-66
2021/12/30 09:52:16;;;;;;;6.27;5.87;;;15.50;99.90;;;;;;4992287;28;1106493;-67
2021/12/30 09:54:42;;;;;;;7.20;6.70;;;15.50;99.90;;;;;;5030489;28;20188;-67
2021/12/30 09:57:08;;;;;;;5.93;5.63;;;15.50;99.90;;;;;;5024775;28;20645;-66
2021/12/30 09:59:34;;;;;;;6.93;6.47;;;15.60;99.90;;;;;;5011069;28;20219;-65
2021/12/30 10:01:59;;;;;;;6.60;6.23;;;15.60;99.90;;;;;;5011174;28;20200;-65
2021/12/30 10:04:31;;;;;;;6.07;5.67;;;15.70;99.90;;;;;;5030962;28;20180;-67
2021/12/30 10:06:58;;;;;;;5.97;5.67;;;15.70;99.90;;;;;;5030961;28;20183;-67
2021/12/30 10:09:40;;;;;;;6.30;6.00;;;15.70;99.90;;;;;;5030807;28;20183;-67
2021/12/30 10:12:06;;;;;;;6.70;6.30;;;15.70;99.90;;;;;;5029250;28;20200;-65
2021/12/30 10:14:37;;;;;;;6.63;6.23;;;15.70;99.90;;;;;;5030794;28;20190;-67
2021/12/30 10:17:22;;;;;;;5.67;5.37;;;15.80;99.90;;;;;;5030813;28;20294;-66
2021/12/30 10:19:50;;;;;;;6.10;5.70;;;15.80;99.90;;;;;;5011084;28;20188;-67
2021/12/30 10:22:19;;;;;;;6.27;5.97;;;15.80;99.90;;;;;;5011002;28;20291;-66
2021/12/30 10:24:46;;;;;;;6.20;5.87;;;15.80;99.90;;;;;;5025959;28;20695;-66
2021/12/30 10:27:30;;;;;;;5.73;5.43;;;15.80;99.90;;;;;;5014169;28;20214;-67
2021/12/30 10:29:57;;;;;;;7.30;6.60;;;15.80;99.90;;;;;;5014441;28;20176;-67
2021/12/30 10:32:26;;;;;;;6.43;6.13;;;15.80;99.90;;;;;;5032085;28;20199;-66
2021/12/30 10:35:12;;;;;;;6.50;5.97;;;15.90;99.90;;;;;;5032887;28;20205;-67
2021/12/30 10:37:43;;;;;;;6.10;5.80;;;15.90;99.90;;;;;;5033983;28;20265;-67
2021/12/30 10:40:29;;;;;;;6.00;5.70;;;15.90;99.90;;;;;;5034234;28;20167;-65
2021/12/30 10:43:18;;;;;;;6.57;6.17;;;15.90;99.90;;;;;;5013784;28;20181;-66
2021/12/30 10:46:00;;;;;;;6.77;6.37;;;15.90;99.90;;;;;;5017094;28;20192;-67
2021/12/30 10:48:25;;;;;;;6.30;5.90;;;15.90;99.90;;;;;;5034188;28;20194;-67
2021/12/30 10:50:51;;;;;;;5.80;5.40;;;15.80;99.90;;;;;;5033141;28;20232;-67
2021/12/30 10:53:27;;;;;;;5.30;5.10;;;15.80;99.90;;;;;;5033620;28;20187;-67
2021/12/30 10:55:53;;;;;;;5.80;5.50;;;15.80;99.90;;;;;;5033667;28;20233;-66
2021/12/30 10:58:25;;;;;;;6.97;6.40;;;15.80;99.90;;;;;;5032522;28;20689;-67
2021/12/30 11:00:51;;;;;;;6.50;6.03;;;15.90;99.90;;;;;;5032142;28;20203;-67
2021/12/30 11:03:24;;;;;;;7.13;6.70;;;15.90;99.90;;;;;;5032155;28;20176;-67
2021/12/30 11:06:17;;;;;;;6.37;6.00;;;16.00;99.90;;;;;;5033296;28;20528;-67
2021/12/30 11:08:43;;;;;;;5.83;5.53;;;16.00;99.90;;;;;;5033373;28;20214;-67
2021/12/30 11:11:26;;;;;;;6.33;5.83;;;16.10;99.90;;;;;;5033429;28;20278;-67
2021/12/30 11:13:59;;;;;;;6.40;6.10;;;16.10;99.90;;;;;;5031673;28;20180;-66
2021/12/30 11:16:25;;;;;;;6.97;6.37;;;16.10;99.90;;;;;;5033039;28;20179;-67
2021/12/30 11:18:50;;;;;;;7.97;7.23;;;16.10;99.90;;;;;;5033031;28;20175;-67
2021/12/30 11:21:35;;;;;;;7.30;6.70;;;16.00;99.90;;;;;;5032473;28;20223;-66
2021/12/30 11:24:03;;;;;;;6.60;6.20;;;16.10;99.90;;;;;;5032979;28;20175;-67
2021/12/30 11:26:28;;;;;;;10.97;8.87;;;16.00;99.90;;;;;;5033354;28;20185;-67
2021/12/30 11:28:55;;;;;;;7.27;6.77;;;16.00;99.90;;;;;;5032610;28;20262;-66
2021/12/30 11:31:21;;;;;;;8.00;7.47;;;16.10;99.90;;;;;;5033441;28;20290;-66
2021/12/30 11:33:48;;;;;;;8.93;8.23;;;16.10;99.90;;;;;;5032575;28;20250;-67
2021/12/30 11:36:16;;;;;;;6.73;6.23;;;16.00;99.90;;;;;;5033216;28;20593;-67
2021/12/30 11:38:42;;;;;;;6.63;6.23;;;15.90;99.90;;;;;;5032293;28;20485;-67
2021/12/30 11:41:15;;;;;;;7.10;6.40;;;15.90;99.90;;;;;;5033083;28;20195;-67
2021/12/30 11:43:43;;;;;;;7.17;6.80;;;16.00;99.90;;;;;;5032468;28;20171;-66
2021/12/30 11:46:37;;;;;;;6.60;6.20;;;16.00;99.90;;;;;;5032667;28;20218;-65
2021/12/30 11:49:05;;;;;;;6.63;6.23;;;16.00;99.90;;;;;;5032951;28;20179;-67
2021/12/30 11:52:01;;;;;;;7.13;6.63;;;16.10;99.90;;;;;;5032576;28;20248;-66
2021/12/30 11:54:34;;;;;;;7.30;6.80;;;16.20;99.90;;;;;;5027832;28;20191;-67
2021/12/30 11:57:32;;;;;;;7.03;6.60;;;16.20;99.90;;;;;;5030561;28;20273;-67
2021/12/30 12:00:19;;;;;;;6.63;6.23;;;16.20;99.90;;;;;;5032443;28;20663;-67
2021/12/30 12:02:45;;;;;;;7.17;6.47;;;16.20;99.90;;;;;;5031917;28;20199;-67
2021/12/30 12:05:41;;;;;;;6.63;6.13;;;16.30;99.90;;;;;;5032268;28;20261;-67
2021/12/30 12:08:10;;;;;;;6.97;6.50;;;16.30;99.90;;;;;;5031585;28;20175;-67
2021/12/30 12:10:37;;;;;;;7.03;6.33;;;16.20;99.90;;;;;;5032136;28;20175;-66
2021/12/30 12:13:30;;;;;;;6.33;5.90;;;16.20;99.90;;;;;;5031688;28;20184;-67
2021/12/30 12:15:56;;;;;;;7.47;6.97;;;16.20;99.90;;;;;;5031957;28;20229;-65
2021/12/30 12:18:23;;;;;;;6.73;6.20;;;16.30;99.90;;;;;;5032016;28;20735;-66
2021/12/30 12:20:53;;;;;;;7.33;6.83;;;16.40;99.90;;;;;;5031879;28;20183;-67
2021/12/30 12:23:42;;;;;;;6.73;6.33;;;16.40;99.90;;;;;;5031575;28;20225;-67
2021/12/30 12:26:20;;;;;;;7.90;7.20;;;16.40;99.90;;;;;;5032150;28;20262;-66
2021/12/30 12:28:48;;;;;;;7.10;6.50;;;16.40;99.90;;;;;;5031418;28;20179;-65
2021/12/30 12:31:14;;;;;;;6.43;6.00;;;16.40;99.90;;;;;;5031953;28;20188;-66
2021/12/30 12:33:42;;;;;;;6.50;6.10;;;16.40;99.90;;;;;;5031346;28;20249;-66
2021/12/30 12:36:16;;;;;;;6.10;5.70;;;16.40;99.90;;;;;;5031841;28;20691;-67
2021/12/30 12:38:48;;;;;;;6.40;6.00;;;16.50;99.90;;;;;;5031371;28;20183;-64
2021/12/30 12:41:25;;;;;;;6.23;5.93;;;16.40;99.90;;;;;;5031840;28;20345;-67
2021/12/30 12:44:19;;;;;;;5.70;5.40;;;16.30;99.90;;;;;;5031045;28;20179;-67
2021/12/30 12:46:47;;;;;;;5.30;5.00;;;16.30;99.90;;;;;;5028965;28;20723;-67
2021/12/30 12:49:15;;;;;;;5.30;5.00;;;16.20;99.90;;;;;;5030481;28;20187;-65